MSC Fiammetta — 3EOU7 — position and weather

sailwx.info

Track history (hours):
 
Tides and Currents Weather Stations Pressure Air Temp Water Temp Dewpoint Dewpoint Depression Visibility Wind Speed Wind Dir Waves Ship Positions

MSC Fiammetta

Last reported at 2018-Jun-21 12:27 UTC. Time now 2018-Jun-21 12:28 UTC.
Position N 51°17' E 004°15'.

Length 277 m; draft 11 m.

Type: Ship (hazmat cat A). MMSI: 372843000.

Date/timePositionNaut miles runAvg speedWind from/ knotsBaromVisibWave heightAir tempDewpointWater temp
2018-Jun-21 12:27N 51°17' E 004°15'0 0.0
2018-Jun-21 12:00N 51°17' E 004°15'0 0.0
2018-Jun-21 11:27N 51°17' E 004°15'0 0.0
2018-Jun-21 11:00N 51°17' E 004°15'0 0.0
2018-Jun-21 10:27N 51°17' E 004°15'0 0.0
2018-Jun-21 10:00N 51°17' E 004°15'0 0.0
2018-Jun-21 09:30N 51°17' E 004°15'0 0.0
2018-Jun-21 09:00N 51°17' E 004°15'0 0.0
2018-Jun-21 08:30N 51°17' E 004°15'0 0.0
2018-Jun-21 08:00N 51°17' E 004°15'0 0.0
2018-Jun-21 07:30N 51°17' E 004°15'0 0.0
2018-Jun-21 06:57N 51°17' E 004°15'0 0.0
2018-Jun-21 06:30N 51°17' E 004°15'0 0.0
2018-Jun-21 05:57N 51°17' E 004°15'1 1.8
2018-Jun-21 05:30N 51°18' E 004°16'0 0.5
2018-Jun-21 04:59N 51°18' E 004°16'0 0.0
2018-Jun-21 04:29N 51°18' E 004°16'0 0.0
2018-Jun-21 03:56N 51°18' E 004°16'0 0.0
2018-Jun-21 03:29N 51°18' E 004°16'0 0.0
2018-Jun-21 02:53N 51°18' E 004°16'0 0.0
2018-Jun-21 02:29N 51°18' E 004°16'0 0.0
2018-Jun-21 01:56N 51°18' E 004°16'0 0.0
2018-Jun-21 01:29N 51°18' E 004°16'0 0.0
2018-Jun-21 00:59N 51°18' E 004°16'0 0.0
2018-Jun-21 00:29N 51°18' E 004°16'0 0.0
2018-Jun-20 23:59N 51°18' E 004°16'0 0.0
2018-Jun-20 23:29N 51°18' E 004°16'0 0.1
2018-Jun-20 22:59N 51°18' E 004°16'0 0.0
2018-Jun-20 22:29N 51°18' E 004°16'0 0.0
2018-Jun-20 21:59N 51°18' E 004°16'0 0.0
2018-Jun-20 21:29N 51°18' E 004°16'0 0.0
2018-Jun-20 20:59N 51°18' E 004°16'0 0.0
2018-Jun-20 20:29N 51°18' E 004°16'0 0.0
2018-Jun-20 19:59N 51°18' E 004°16'0 0.0
2018-Jun-20 19:29N 51°18' E 004°16'0 0.0
2018-Jun-20 18:56N 51°18' E 004°16'0 0.0
2018-Jun-20 18:29N 51°18' E 004°16'0 0.0
2018-Jun-20 17:59N 51°18' E 004°16'0 0.0
2018-Jun-20 17:29N 51°18' E 004°16'0 0.0
2018-Jun-20 16:59N 51°18' E 004°16'0 0.0
2018-Jun-20 16:29N 51°18' E 004°16'0 0.0
2018-Jun-20 15:59N 51°18' E 004°16'0 0.0
2018-Jun-20 15:26N 51°18' E 004°16'0 0.0
2018-Jun-20 14:59N 51°18' E 004°16'0 0.0
2018-Jun-20 14:26N 51°18' E 004°16'0 0.0
2018-Jun-20 13:59N 51°18' E 004°16'0 0.4
2018-Jun-20 13:30N 51°18' E 004°16'1 3.0
2018-Jun-20 13:00N 51°20' E 004°16'4 7.6
2018-Jun-20 12:30N 51°23' E 004°13'510.3
2018-Jun-20 12:00N 51°22' E 004°05'510.1
2018-Jun-20 11:30N 51°25' E 003°58'611.8
2018-Jun-20 11:01N 51°21' E 003°52'713.2
2018-Jun-20 10:31N 51°24' E 003°43'5 9.3
2018-Jun-20 10:00N 51°26' E 003°36'4 8.2
2018-Jun-20 09:30N 51°25' E 003°29'611.1
2018-Jun-20 09:00N 51°24' E 003°21'916.5
2018-Jun-20 08:29N 51°24' E 003°07'611.7
2018-Jun-20 08:00N 51°28' E 003°01'816.0
2018-Jun-20 07:30N 51°34' E 003°09'816.0
2018-Jun-20 07:00N 51°42' E 003°12'712.9
2018-Jun-20 06:28N 51°48' E 003°16'3 5.7
2018-Jun-20 06:00N 51°51' E 003°15'4 7.3
2018-Jun-20 05:29N 51°49' E 003°10'4 7.6
2018-Jun-20 04:56N 51°51' E 003°05'4 8.9
2018-Jun-20 04:29N 51°51' E 002°58'8 8.5
2018-Jun-20 03:31N 51°56' E 002°47'1 9.8
2018-Jun-20 03:27N 51°56' E 002°46'1310.0
2018-Jun-20 02:09N 52°09' E 002°40'211.2
2018-Jun-20 01:59N 52°10' E 002°40'1512.7
2018-Jun-20 00:49N 52°24' E 002°51'  
2018-Jun-17 19:31N 57°45' E 010°54'0 6.9
2018-Jun-17 19:30N 57°45' E 010°54'5 9.1
2018-Jun-17 18:58N 57°41' E 010°60'714.7
2018-Jun-17 18:30N 57°37' E 011°09'714.0
2018-Jun-17 18:01N 57°32' E 011°18'713.8
2018-Jun-17 17:30N 57°27' E 011°27'714.0
2018-Jun-17 17:00N 57°20' E 011°31'714.6
2018-Jun-17 16:30N 57°13' E 011°36'11612.8
2018-Jun-17 07:25N 55°19' E 011°03'614.4
2018-Jun-17 06:59N 55°13' E 011°06'713.6
2018-Jun-17 06:30N 55°07' E 010°59'714.1
2018-Jun-17 06:00N 55°00' E 010°59'713.7
2018-Jun-17 05:31N 54°55' E 010°52'714.0
2018-Jun-17 05:01N 54°48' E 010°50'713.1
2018-Jun-17 04:31N 54°42' E 010°49'713.2
2018-Jun-17 04:00N 54°37' E 010°57'713.6
2018-Jun-17 03:31N 54°36' E 011°09'713.6
2018-Jun-17 03:00N 54°34' E 011°20'713.7
2018-Jun-17 02:30N 54°30' E 011°30'714.2
2018-Jun-17 02:00N 54°28' E 011°42'714.8
2018-Jun-17 01:30N 54°27' E 011°54'714.2
2018-Jun-17 01:01N 54°26' E 012°06'713.1
2018-Jun-17 00:31N 54°31' E 012°14'714.7
2018-Jun-17 00:01N 54°38' E 012°20'815.1
2018-Jun-16 23:31N 54°42' E 012°31'714.9
2018-Jun-16 23:01N 54°46' E 012°42'7 9.9
2018-Jun-16 22:17N 54°49' E 012°53'2 9.0
2018-Jun-16 22:00N 54°50' E 012°57'5 8.8
2018-Jun-16 21:28N 54°52' E 013°05'4 8.8
2018-Jun-16 21:00N 54°53' E 013°11'4 9.0
2018-Jun-16 20:31N 54°54' E 013°19'5 9.6
2018-Jun-16 20:00N 54°52' E 013°27'510.0
2018-Jun-16 19:31N 54°50' E 013°35'5 9.9
2018-Jun-16 19:00N 54°48' E 013°43'5 9.7
2018-Jun-16 18:29N 54°46' E 013°51'5 9.9
2018-Jun-16 18:00N 54°44' E 013°58'510.0
2018-Jun-16 17:30N 54°42' E 014°06'510.0
2018-Jun-16 17:01N 54°40' E 014°14'510.3
2018-Jun-16 16:30N 54°38' E 014°22'611.1
2018-Jun-16 16:00N 54°38' E 014°32'510.9
2018-Jun-16 15:31N 54°39' E 014°41'611.0
2018-Jun-16 15:01N 54°42' E 014°50'611.2
2018-Jun-16 14:31N 54°44' E 014°59'611.2
2018-Jun-16 14:00N 54°46' E 015°07'511.0
2018-Jun-16 13:30N 54°48' E 015°16'510.7
2018-Jun-16 13:00N 54°51' E 015°25'510.6
2018-Jun-16 12:30N 54°53' E 015°33'910.3
2018-Jun-16 11:40N 54°57' E 015°47'210.1
2018-Jun-16 11:30N 54°57' E 015°49'510.3
2018-Jun-16 11:00N 54°59' E 015°57'510.4
2018-Jun-16 10:30N 55°01' E 016°06'710.3
2018-Jun-16 09:49N 55°04' E 016°17'3 9.8
2018-Jun-16 09:30N 55°05' E 016°22'5 9.6
2018-Jun-16 09:01N 55°06' E 016°30'7 8.9
2018-Jun-16 08:16N 55°07' E 016°42'310.7
2018-Jun-16 07:57N 55°07' E 016°47'510.8
2018-Jun-16 07:30N 55°08' E 016°56'710.8
2018-Jun-16 06:54N 55°09' E 017°07'410.7
2018-Jun-16 06:30N 55°10' E 017°14'1211.3
2018-Jun-16 05:27N 55°11' E 017°35'611.5
2018-Jun-16 04:56N 55°12' E 017°45'511.4
2018-Jun-16 04:30N 55°13' E 017°54'611.3
2018-Jun-16 04:00N 55°14' E 018°04'611.2
2018-Jun-16 03:30N 55°15' E 018°13'611.1
2018-Jun-16 02:59N 55°16' E 018°24'511.2
2018-Jun-16 02:30N 55°16' E 018°33'711.1
2018-Jun-16 01:55N 55°17' E 018°44'511.1
2018-Jun-16 01:27N 55°19' E 018°53'511.2
2018-Jun-16 00:58N 55°21' E 019°01'1011.4
2018-Jun-16 00:04N 55°24' E 019°19'211.5
2018-Jun-15 23:53N 55°25' E 019°22'511.4
2018-Jun-15 23:28N 55°27' E 019°30'511.5
2018-Jun-15 23:00N 55°29' E 019°39'1111.2
2018-Jun-15 22:03N 55°33' E 019°56'111.2
2018-Jun-15 22:00N 55°33' E 019°57'511.1
2018-Jun-15 21:30N 55°35' E 020°06'611.2
2018-Jun-15 20:59N 55°37' E 020°16'511.1
2018-Jun-15 20:30N 55°39' E 020°25'611.2
2018-Jun-15 20:00N 55°41' E 020°34'510.6
2018-Jun-15 19:30N 55°43' E 020°43'510.0
2018-Jun-15 19:00N 55°44' E 020°51'510.1
2018-Jun-15 18:30N 55°43' E 021°00'3 6.6
2018-Jun-15 18:00N 55°43' E 021°06'3 5.8
2018-Jun-15 17:29N 55°41' E 021°08'0 0.0
2018-Jun-15 15:28N 55°41' E 021°09'0 0.0
2018-Jun-15 15:00N 55°41' E 021°09'0 0.0
2018-Jun-15 14:30N 55°41' E 021°09'0 0.0
2018-Jun-15 14:00N 55°41' E 021°09'0 0.0
2018-Jun-15 13:27N 55°41' E 021°09'0 0.0
2018-Jun-15 13:00N 55°41' E 021°09'0 0.0
2018-Jun-15 12:00N 55°41' E 021°09'0 0.0
2018-Jun-15 11:24N 55°41' E 021°09'0 0.0
2018-Jun-15 10:45N 55°41' E 021°09'0 0.0
2018-Jun-15 10:23N 55°41' E 021°09'67 4.0
2018-Jun-14 17:39N 55°12' E 019°21'413.3
2018-Jun-14 17:23N 55°09' E 019°19'513.4
2018-Jun-14 17:00N 55°04' E 019°15'713.5
2018-Jun-14 16:30N 54°58' E 019°11'816.5
2018-Jun-14 16:01N 54°51' E 019°05'1121.4
2018-Jun-14 15:30N 54°41' E 018°58'1020.6
2018-Jun-14 15:00N 54°32' E 018°49'816.2
2018-Jun-14 14:30N 54°32' E 018°35'2 4.7
2018-Jun-14 14:00N 54°33' E 018°31'0 0.0
2018-Jun-14 13:28N 54°33' E 018°31'0 0.0
2018-Jun-14 12:58N 54°33' E 018°31'0 0.0
2018-Jun-14 12:28N 54°33' E 018°31'0 0.0
2018-Jun-14 11:58N 54°33' E 018°31'0 0.0
2018-Jun-14 11:28N 54°33' E 018°31'0 0.0
2018-Jun-14 10:58N 54°33' E 018°31'0 0.0
2018-Jun-14 10:28N 54°33' E 018°31'0 0.0
2018-Jun-14 09:58N 54°33' E 018°31'0 0.0
2018-Jun-14 09:28N 54°33' E 018°31'0 0.0
2018-Jun-14 08:58N 54°33' E 018°31'0 0.0
2018-Jun-14 08:28N 54°33' E 018°31'0 0.0
2018-Jun-14 07:58N 54°33' E 018°31'0 0.0
2018-Jun-14 07:28N 54°33' E 018°31'0 0.0
2018-Jun-14 06:58N 54°33' E 018°31'0 0.0
2018-Jun-14 06:28N 54°33' E 018°31'0 0.0
2018-Jun-14 05:58N 54°33' E 018°31'0 0.0
2018-Jun-14 05:28N 54°33' E 018°31'0 0.0
2018-Jun-14 04:58N 54°33' E 018°31'0 0.0
2018-Jun-14 04:28N 54°33' E 018°31'0 0.0
2018-Jun-14 03:58N 54°33' E 018°31'0 0.0
2018-Jun-14 03:28N 54°33' E 018°31'0 0.0
2018-Jun-14 02:58N 54°33' E 018°31'0 0.0
2018-Jun-14 02:28N 54°33' E 018°31'0 0.0
2018-Jun-14 01:55N 54°33' E 018°31'0 0.0
2018-Jun-14 01:28N 54°33' E 018°31'0 0.0
2018-Jun-14 00:58N 54°33' E 018°31'0 0.0
2018-Jun-14 00:28N 54°33' E 018°31'0 0.0
2018-Jun-13 23:58N 54°33' E 018°31'0 0.0
2018-Jun-13 23:28N 54°33' E 018°31'0 0.0
2018-Jun-13 22:58N 54°33' E 018°31'0 0.0
2018-Jun-13 22:28N 54°33' E 018°31'0 0.0
2018-Jun-13 21:58N 54°33' E 018°31'0 0.0
2018-Jun-13 21:28N 54°33' E 018°31'0 0.0
2018-Jun-13 20:58N 54°33' E 018°31'0 0.0
2018-Jun-13 20:28N 54°33' E 018°31'0 0.0
2018-Jun-13 19:58N 54°33' E 018°31'0 0.0
2018-Jun-13 19:28N 54°33' E 018°31'0 0.0
2018-Jun-13 18:58N 54°33' E 018°31'0 0.0
2018-Jun-13 18:28N 54°33' E 018°31'0 0.0
2018-Jun-13 17:58N 54°33' E 018°31'0 0.0
2018-Jun-13 17:28N 54°33' E 018°31'0 0.0
2018-Jun-13 16:58N 54°33' E 018°31'0 0.0
2018-Jun-13 16:28N 54°33' E 018°31'0 0.0
2018-Jun-13 15:58N 54°33' E 018°31'0 0.0
2018-Jun-13 15:28N 54°33' E 018°31'0 0.0
2018-Jun-13 14:58N 54°33' E 018°31'0 0.0
2018-Jun-13 14:28N 54°33' E 018°31'0 0.0
2018-Jun-13 13:58N 54°33' E 018°31'0 0.0
2018-Jun-13 13:28N 54°33' E 018°31'0 0.0
2018-Jun-13 12:59N 54°33' E 018°31'0 0.0
2018-Jun-13 12:29N 54°33' E 018°31'0 0.0
2018-Jun-13 11:58N 54°33' E 018°31'0 0.0
2018-Jun-13 11:28N 54°33' E 018°31'0 0.0
2018-Jun-13 10:59N 54°33' E 018°31'0 0.0
2018-Jun-13 10:28N 54°33' E 018°31'0 0.0
2018-Jun-13 09:58N 54°33' E 018°31'0 0.0
2018-Jun-13 09:29N 54°33' E 018°31'0 0.0
2018-Jun-13 08:56N 54°33' E 018°31'0 0.0
2018-Jun-13 08:28N 54°33' E 018°31'0 0.0
2018-Jun-13 07:58N 54°33' E 018°31'0 0.0
2018-Jun-13 07:29N 54°33' E 018°31'0 0.0
2018-Jun-13 06:59N 54°33' E 018°31'0 0.0
2018-Jun-13 06:28N 54°33' E 018°31'0 0.0
2018-Jun-13 05:56N 54°33' E 018°31'0 0.0
2018-Jun-13 05:29N 54°33' E 018°31'0 0.0
2018-Jun-13 04:58N 54°33' E 018°31'0 0.0
2018-Jun-13 04:28N 54°33' E 018°31'0 0.0
2018-Jun-13 03:59N 54°33' E 018°31'0 0.0
2018-Jun-13 03:29N 54°33' E 018°31'0 0.0
2018-Jun-13 02:55N 54°33' E 018°31'0 0.0
2018-Jun-13 02:28N 54°33' E 018°31'0 0.0
2018-Jun-13 01:56N 54°33' E 018°31'0 0.0
2018-Jun-13 01:29N 54°33' E 018°31'1 1.2
2018-Jun-13 01:00N 54°32' E 018°32'3 5.6
2018-Jun-13 00:30N 54°32' E 018°37'3 4.8
2018-Jun-12 23:59N 54°32' E 018°41'2 3.6
2018-Jun-12 23:30N 54°32' E 018°44'5 9.5
2018-Jun-12 23:00N 54°34' E 018°51'612.9
2018-Jun-12 22:30N 54°40' E 018°57'0 0.5
2018-Jun-12 22:00N 54°40' E 018°57'0 0.2
2018-Jun-12 21:30N 54°40' E 018°56'2 4.9
2018-Jun-12 21:00N 54°41' E 019°01'3 5.6
2018-Jun-12 20:30N 54°41' E 019°05'1 1.4
2018-Jun-12 19:59N 54°42' E 019°05'1 1.3
2018-Jun-12 19:30N 54°42' E 019°04'0 0.9
2018-Jun-12 19:00N 54°43' E 019°04'0 0.6
2018-Jun-12 18:30N 54°43' E 019°03'0 0.5
2018-Jun-12 18:00N 54°43' E 019°03'0 0.5
2018-Jun-12 17:30N 54°43' E 019°03'1 1.4
2018-Jun-12 17:00N 54°43' E 019°02'2 4.6
2018-Jun-12 16:30N 54°43' E 018°58'5 9.5
2018-Jun-12 16:00N 54°48' E 018°56'610.9
2018-Jun-12 15:30N 54°52' E 018°51'510.9
2018-Jun-12 15:00N 54°57' E 018°46'5 9.8
2018-Jun-12 14:30N 54°60' E 018°40'510.8
2018-Jun-12 14:00N 54°60' E 018°30'610.8
2018-Jun-12 13:30N 54°60' E 018°21'510.8
2018-Jun-12 13:00N 54°59' E 018°12'510.8
2018-Jun-12 12:30N 54°58' E 018°02'611.2
2018-Jun-12 12:00N 54°57' E 017°53'611.0
2018-Jun-12 11:29N 54°56' E 017°43'2 4.6
2018-Jun-12 11:00N 54°53' E 017°42'0 1.0
2018-Jun-12 10:29N 54°54' E 017°41'1 1.0
2018-Jun-12 10:00N 54°54' E 017°40'4 1.1
2018-Jun-12 06:28N 54°55' E 017°33'4810.5
2018-Jun-12 01:55N 54°45' E 016°12'510.9
2018-Jun-12 01:26N 54°45' E 016°03'1310.9
2018-Jun-12 00:14N 54°43' E 015°41'1310.8
2018-Jun-11 23:00N 54°41' E 015°18'710.4
2018-Jun-11 22:21N 54°40' E 015°06'410.3
2018-Jun-11 22:00N 54°39' E 015°00'610.6
2018-Jun-11 21:26N 54°38' E 014°50'510.9
2018-Jun-11 21:00N 54°38' E 014°42'1010.8
2018-Jun-11 20:06N 54°36' E 014°25'810.9
2018-Jun-11 19:20N 54°38' E 014°12'411.1
2018-Jun-11 18:56N 54°40' E 014°05'3410.9
2018-Jun-11 15:51N 54°49' E 013°08'1911.4
2018-Jun-11 14:09N 54°43' E 012°37'211.2
2018-Jun-11 13:56N 54°42' E 012°33'1011.6
2018-Jun-11 13:06N 54°37' E 012°18'111.5
2018-Jun-11 13:00N 54°36' E 012°17'511.0
2018-Jun-11 12:30N 54°31' E 012°14'  
Track history (hours):
 
Tides and Currents Weather Stations Pressure Air Temp Water Temp Dewpoint Dewpoint Depression Visibility Wind Speed Wind Dir Waves Ship Positions

MSC Fiammetta

Last reported at 2018-Jun-21 12:27 UTC. Time now 2018-Jun-21 12:28 UTC.
Position N 51°17' E 004°15'.

Length 277 m; draft 11 m.

Type: Ship (hazmat cat A). MMSI: 372843000.

Date/timePositionNaut miles runAvg speedWind from/ knotsBaromVisibWave heightAir tempDewpointWater temp
2018-Jun-21 12:27N 51°17' E 004°15'0 0.0
2018-Jun-21 12:00N 51°17' E 004°15'0 0.0
2018-Jun-21 11:27N 51°17' E 004°15'0 0.0
2018-Jun-21 11:00N 51°17' E 004°15'0 0.0
2018-Jun-21 10:27N 51°17' E 004°15'0 0.0
2018-Jun-21 10:00N 51°17' E 004°15'0 0.0
2018-Jun-21 09:30N 51°17' E 004°15'0 0.0
2018-Jun-21 09:00N 51°17' E 004°15'0 0.0
2018-Jun-21 08:30N 51°17' E 004°15'0 0.0
2018-Jun-21 08:00N 51°17' E 004°15'0 0.0
2018-Jun-21 07:30N 51°17' E 004°15'0 0.0
2018-Jun-21 06:57N 51°17' E 004°15'0 0.0
2018-Jun-21 06:30N 51°17' E 004°15'0 0.0
2018-Jun-21 05:57N 51°17' E 004°15'1 1.8
2018-Jun-21 05:30N 51°18' E 004°16'0 0.5
2018-Jun-21 04:59N 51°18' E 004°16'0 0.0
2018-Jun-21 04:29N 51°18' E 004°16'0 0.0
2018-Jun-21 03:56N 51°18' E 004°16'0 0.0
2018-Jun-21 03:29N 51°18' E 004°16'0 0.0
2018-Jun-21 02:53N 51°18' E 004°16'0 0.0
2018-Jun-21 02:29N 51°18' E 004°16'0 0.0
2018-Jun-21 01:56N 51°18' E 004°16'0 0.0
2018-Jun-21 01:29N 51°18' E 004°16'0 0.0
2018-Jun-21 00:59N 51°18' E 004°16'0 0.0
2018-Jun-21 00:29N 51°18' E 004°16'0 0.0
2018-Jun-20 23:59N 51°18' E 004°16'0 0.0
2018-Jun-20 23:29N 51°18' E 004°16'0 0.1
2018-Jun-20 22:59N 51°18' E 004°16'0 0.0
2018-Jun-20 22:29N 51°18' E 004°16'0 0.0
2018-Jun-20 21:59N 51°18' E 004°16'0 0.0
2018-Jun-20 21:29N 51°18' E 004°16'0 0.0
2018-Jun-20 20:59N 51°18' E 004°16'0 0.0
2018-Jun-20 20:29N 51°18' E 004°16'0 0.0
2018-Jun-20 19:59N 51°18' E 004°16'0 0.0
2018-Jun-20 19:29N 51°18' E 004°16'0 0.0
2018-Jun-20 18:56N 51°18' E 004°16'0 0.0
2018-Jun-20 18:29N 51°18' E 004°16'0 0.0
2018-Jun-20 17:59N 51°18' E 004°16'0 0.0
2018-Jun-20 17:29N 51°18' E 004°16'0 0.0
2018-Jun-20 16:59N 51°18' E 004°16'0 0.0
2018-Jun-20 16:29N 51°18' E 004°16'0 0.0
2018-Jun-20 15:59N 51°18' E 004°16'0 0.0
2018-Jun-20 15:26N 51°18' E 004°16'0 0.0
2018-Jun-20 14:59N 51°18' E 004°16'0 0.0
2018-Jun-20 14:26N 51°18' E 004°16'0 0.0
2018-Jun-20 13:59N 51°18' E 004°16'0 0.4
2018-Jun-20 13:30N 51°18' E 004°16'1 3.0
2018-Jun-20 13:00N 51°20' E 004°16'4 7.6
2018-Jun-20 12:30N 51°23' E 004°13'510.3
2018-Jun-20 12:00N 51°22' E 004°05'510.1
2018-Jun-20 11:30N 51°25' E 003°58'611.8
2018-Jun-20 11:01N 51°21' E 003°52'713.2
2018-Jun-20 10:31N 51°24' E 003°43'5 9.3
2018-Jun-20 10:00N 51°26' E 003°36'4 8.2
2018-Jun-20 09:30N 51°25' E 003°29'611.1
2018-Jun-20 09:00N 51°24' E 003°21'916.5
2018-Jun-20 08:29N 51°24' E 003°07'611.7
2018-Jun-20 08:00N 51°28' E 003°01'816.0
2018-Jun-20 07:30N 51°34' E 003°09'816.0
2018-Jun-20 07:00N 51°42' E 003°12'712.9
2018-Jun-20 06:28N 51°48' E 003°16'3 5.7
2018-Jun-20 06:00N 51°51' E 003°15'4 7.3
2018-Jun-20 05:29N 51°49' E 003°10'4 7.6
2018-Jun-20 04:56N 51°51' E 003°05'4 8.9
2018-Jun-20 04:29N 51°51' E 002°58'8 8.5
2018-Jun-20 03:31N 51°56' E 002°47'1 9.8
2018-Jun-20 03:27N 51°56' E 002°46'1310.0
2018-Jun-20 02:09N 52°09' E 002°40'211.2
2018-Jun-20 01:59N 52°10' E 002°40'1512.7
2018-Jun-20 00:49N 52°24' E 002°51'  
2018-Jun-17 19:31N 57°45' E 010°54'0 6.9
2018-Jun-17 19:30N 57°45' E 010°54'5 9.1
2018-Jun-17 18:58N 57°41' E 010°60'714.7
2018-Jun-17 18:30N 57°37' E 011°09'714.0
2018-Jun-17 18:01N 57°32' E 011°18'713.8
2018-Jun-17 17:30N 57°27' E 011°27'714.0
2018-Jun-17 17:00N 57°20' E 011°31'714.6
2018-Jun-17 16:30N 57°13' E 011°36'11612.8
2018-Jun-17 07:25N 55°19' E 011°03'614.4
2018-Jun-17 06:59N 55°13' E 011°06'713.6
2018-Jun-17 06:30N 55°07' E 010°59'714.1
2018-Jun-17 06:00N 55°00' E 010°59'713.7
2018-Jun-17 05:31N 54°55' E 010°52'714.0
2018-Jun-17 05:01N 54°48' E 010°50'713.1
2018-Jun-17 04:31N 54°42' E 010°49'713.2
2018-Jun-17 04:00N 54°37' E 010°57'713.6
2018-Jun-17 03:31N 54°36' E 011°09'713.6
2018-Jun-17 03:00N 54°34' E 011°20'713.7
2018-Jun-17 02:30N 54°30' E 011°30'714.2
2018-Jun-17 02:00N 54°28' E 011°42'714.8
2018-Jun-17 01:30N 54°27' E 011°54'714.2
2018-Jun-17 01:01N 54°26' E 012°06'713.1
2018-Jun-17 00:31N 54°31' E 012°14'714.7
2018-Jun-17 00:01N 54°38' E 012°20'815.1
2018-Jun-16 23:31N 54°42' E 012°31'714.9
2018-Jun-16 23:01N 54°46' E 012°42'7 9.9
2018-Jun-16 22:17N 54°49' E 012°53'2 9.0
2018-Jun-16 22:00N 54°50' E 012°57'5 8.8
2018-Jun-16 21:28N 54°52' E 013°05'4 8.8
2018-Jun-16 21:00N 54°53' E 013°11'4 9.0
2018-Jun-16 20:31N 54°54' E 013°19'5 9.6
2018-Jun-16 20:00N 54°52' E 013°27'510.0
2018-Jun-16 19:31N 54°50' E 013°35'5 9.9
2018-Jun-16 19:00N 54°48' E 013°43'5 9.7
2018-Jun-16 18:29N 54°46' E 013°51'5 9.9
2018-Jun-16 18:00N 54°44' E 013°58'510.0
2018-Jun-16 17:30N 54°42' E 014°06'510.0
2018-Jun-16 17:01N 54°40' E 014°14'510.3
2018-Jun-16 16:30N 54°38' E 014°22'611.1
2018-Jun-16 16:00N 54°38' E 014°32'510.9
2018-Jun-16 15:31N 54°39' E 014°41'611.0
2018-Jun-16 15:01N 54°42' E 014°50'611.2
2018-Jun-16 14:31N 54°44' E 014°59'611.2
2018-Jun-16 14:00N 54°46' E 015°07'511.0
2018-Jun-16 13:30N 54°48' E 015°16'510.7
2018-Jun-16 13:00N 54°51' E 015°25'510.6
2018-Jun-16 12:30N 54°53' E 015°33'910.3
2018-Jun-16 11:40N 54°57' E 015°47'210.1
2018-Jun-16 11:30N 54°57' E 015°49'510.3
2018-Jun-16 11:00N 54°59' E 015°57'510.4
2018-Jun-16 10:30N 55°01' E 016°06'710.3
2018-Jun-16 09:49N 55°04' E 016°17'3 9.8
2018-Jun-16 09:30N 55°05' E 016°22'5 9.6
2018-Jun-16 09:01N 55°06' E 016°30'7 8.9
2018-Jun-16 08:16N 55°07' E 016°42'310.7
2018-Jun-16 07:57N 55°07' E 016°47'510.8
2018-Jun-16 07:30N 55°08' E 016°56'710.8
2018-Jun-16 06:54N 55°09' E 017°07'410.7
2018-Jun-16 06:30N 55°10' E 017°14'1211.3
2018-Jun-16 05:27N 55°11' E 017°35'611.5
2018-Jun-16 04:56N 55°12' E 017°45'511.4
2018-Jun-16 04:30N 55°13' E 017°54'611.3
2018-Jun-16 04:00N 55°14' E 018°04'611.2
2018-Jun-16 03:30N 55°15' E 018°13'611.1
2018-Jun-16 02:59N 55°16' E 018°24'511.2
2018-Jun-16 02:30N 55°16' E 018°33'711.1
2018-Jun-16 01:55N 55°17' E 018°44'511.1
2018-Jun-16 01:27N 55°19' E 018°53'511.2
2018-Jun-16 00:58N 55°21' E 019°01'1011.4
2018-Jun-16 00:04N 55°24' E 019°19'211.5
2018-Jun-15 23:53N 55°25' E 019°22'511.4
2018-Jun-15 23:28N 55°27' E 019°30'511.5
2018-Jun-15 23:00N 55°29' E 019°39'1111.2
2018-Jun-15 22:03N 55°33' E 019°56'111.2
2018-Jun-15 22:00N 55°33' E 019°57'511.1
2018-Jun-15 21:30N 55°35' E 020°06'611.2
2018-Jun-15 20:59N 55°37' E 020°16'511.1
2018-Jun-15 20:30N 55°39' E 020°25'611.2
2018-Jun-15 20:00N 55°41' E 020°34'510.6
2018-Jun-15 19:30N 55°43' E 020°43'510.0
2018-Jun-15 19:00N 55°44' E 020°51'510.1
2018-Jun-15 18:30N 55°43' E 021°00'3 6.6
2018-Jun-15 18:00N 55°43' E 021°06'3 5.8
2018-Jun-15 17:29N 55°41' E 021°08'0 0.0
2018-Jun-15 15:28N 55°41' E 021°09'0 0.0
2018-Jun-15 15:00N 55°41' E 021°09'0 0.0
2018-Jun-15 14:30N 55°41' E 021°09'0 0.0
2018-Jun-15 14:00N 55°41' E 021°09'0 0.0
2018-Jun-15 13:27N 55°41' E 021°09'0 0.0
2018-Jun-15 13:00N 55°41' E 021°09'0 0.0
2018-Jun-15 12:00N 55°41' E 021°09'0 0.0
2018-Jun-15 11:24N 55°41' E 021°09'0 0.0
2018-Jun-15 10:45N 55°41' E 021°09'0 0.0
2018-Jun-15 10:23N 55°41' E 021°09'67 4.0
2018-Jun-14 17:39N 55°12' E 019°21'413.3
2018-Jun-14 17:23N 55°09' E 019°19'513.4
2018-Jun-14 17:00N 55°04' E 019°15'713.5
2018-Jun-14 16:30N 54°58' E 019°11'816.5
2018-Jun-14 16:01N 54°51' E 019°05'1121.4
2018-Jun-14 15:30N 54°41' E 018°58'1020.6
2018-Jun-14 15:00N 54°32' E 018°49'816.2
2018-Jun-14 14:30N 54°32' E 018°35'2 4.7
2018-Jun-14 14:00N 54°33' E 018°31'0 0.0
2018-Jun-14 13:28N 54°33' E 018°31'0 0.0
2018-Jun-14 12:58N 54°33' E 018°31'0 0.0
2018-Jun-14 12:28N 54°33' E 018°31'0 0.0
2018-Jun-14 11:58N 54°33' E 018°31'0 0.0
2018-Jun-14 11:28N 54°33' E 018°31'0 0.0
2018-Jun-14 10:58N 54°33' E 018°31'0 0.0
2018-Jun-14 10:28N 54°33' E 018°31'0 0.0
2018-Jun-14 09:58N 54°33' E 018°31'0 0.0
2018-Jun-14 09:28N 54°33' E 018°31'0 0.0
2018-Jun-14 08:58N 54°33' E 018°31'0 0.0
2018-Jun-14 08:28N 54°33' E 018°31'0 0.0
2018-Jun-14 07:58N 54°33' E 018°31'0 0.0
2018-Jun-14 07:28N 54°33' E 018°31'0 0.0
2018-Jun-14 06:58N 54°33' E 018°31'0 0.0
2018-Jun-14 06:28N 54°33' E 018°31'0 0.0
2018-Jun-14 05:58N 54°33' E 018°31'0 0.0
2018-Jun-14 05:28N 54°33' E 018°31'0 0.0
2018-Jun-14 04:58N 54°33' E 018°31'0 0.0
2018-Jun-14 04:28N 54°33' E 018°31'0 0.0
2018-Jun-14 03:58N 54°33' E 018°31'0 0.0
2018-Jun-14 03:28N 54°33' E 018°31'0 0.0
2018-Jun-14 02:58N 54°33' E 018°31'0 0.0
2018-Jun-14 02:28N 54°33' E 018°31'0 0.0
2018-Jun-14 01:55N 54°33' E 018°31'0 0.0
2018-Jun-14 01:28N 54°33' E 018°31'0 0.0
2018-Jun-14 00:58N 54°33' E 018°31'0 0.0
2018-Jun-14 00:28N 54°33' E 018°31'0 0.0
2018-Jun-13 23:58N 54°33' E 018°31'0 0.0
2018-Jun-13 23:28N 54°33' E 018°31'0 0.0
2018-Jun-13 22:58N 54°33' E 018°31'0 0.0
2018-Jun-13 22:28N 54°33' E 018°31'0 0.0
2018-Jun-13 21:58N 54°33' E 018°31'0 0.0
2018-Jun-13 21:28N 54°33' E 018°31'0 0.0
2018-Jun-13 20:58N 54°33' E 018°31'0 0.0
2018-Jun-13 20:28N 54°33' E 018°31'0 0.0
2018-Jun-13 19:58N 54°33' E 018°31'0 0.0
2018-Jun-13 19:28N 54°33' E 018°31'0 0.0
2018-Jun-13 18:58N 54°33' E 018°31'0 0.0
2018-Jun-13 18:28N 54°33' E 018°31'0 0.0
2018-Jun-13 17:58N 54°33' E 018°31'0 0.0
2018-Jun-13 17:28N 54°33' E 018°31'0 0.0
2018-Jun-13 16:58N 54°33' E 018°31'0 0.0
2018-Jun-13 16:28N 54°33' E 018°31'0 0.0
2018-Jun-13 15:58N 54°33' E 018°31'0 0.0
2018-Jun-13 15:28N 54°33' E 018°31'0 0.0
2018-Jun-13 14:58N 54°33' E 018°31'0 0.0
2018-Jun-13 14:28N 54°33' E 018°31'0 0.0
2018-Jun-13 13:58N 54°33' E 018°31'0 0.0
2018-Jun-13 13:28N 54°33' E 018°31'0 0.0
2018-Jun-13 12:59N 54°33' E 018°31'0 0.0
2018-Jun-13 12:29N 54°33' E 018°31'0 0.0
2018-Jun-13 11:58N 54°33' E 018°31'0 0.0
2018-Jun-13 11:28N 54°33' E 018°31'0 0.0
2018-Jun-13 10:59N 54°33' E 018°31'0 0.0
2018-Jun-13 10:28N 54°33' E 018°31'0 0.0
2018-Jun-13 09:58N 54°33' E 018°31'0 0.0
2018-Jun-13 09:29N 54°33' E 018°31'0 0.0
2018-Jun-13 08:56N 54°33' E 018°31'0 0.0
2018-Jun-13 08:28N 54°33' E 018°31'0 0.0
2018-Jun-13 07:58N 54°33' E 018°31'0 0.0
2018-Jun-13 07:29N 54°33' E 018°31'0 0.0
2018-Jun-13 06:59N 54°33' E 018°31'0 0.0
2018-Jun-13 06:28N 54°33' E 018°31'0 0.0
2018-Jun-13 05:56N 54°33' E 018°31'0 0.0
2018-Jun-13 05:29N 54°33' E 018°31'0 0.0
2018-Jun-13 04:58N 54°33' E 018°31'0 0.0
2018-Jun-13 04:28N 54°33' E 018°31'0 0.0
2018-Jun-13 03:59N 54°33' E 018°31'0 0.0
2018-Jun-13 03:29N 54°33' E 018°31'0 0.0
2018-Jun-13 02:55N 54°33' E 018°31'0 0.0
2018-Jun-13 02:28N 54°33' E 018°31'0 0.0
2018-Jun-13 01:56N 54°33' E 018°31'0 0.0
2018-Jun-13 01:29N 54°33' E 018°31'1 1.2
2018-Jun-13 01:00N 54°32' E 018°32'3 5.6
2018-Jun-13 00:30N 54°32' E 018°37'3 4.8
2018-Jun-12 23:59N 54°32' E 018°41'2 3.6
2018-Jun-12 23:30N 54°32' E 018°44'5 9.5
2018-Jun-12 23:00N 54°34' E 018°51'612.9
2018-Jun-12 22:30N 54°40' E 018°57'0 0.5
2018-Jun-12 22:00N 54°40' E 018°57'0 0.2
2018-Jun-12 21:30N 54°40' E 018°56'2 4.9
2018-Jun-12 21:00N 54°41' E 019°01'3 5.6
2018-Jun-12 20:30N 54°41' E 019°05'1 1.4
2018-Jun-12 19:59N 54°42' E 019°05'1 1.3
2018-Jun-12 19:30N 54°42' E 019°04'0 0.9
2018-Jun-12 19:00N 54°43' E 019°04'0 0.6
2018-Jun-12 18:30N 54°43' E 019°03'0 0.5
2018-Jun-12 18:00N 54°43' E 019°03'0 0.5
2018-Jun-12 17:30N 54°43' E 019°03'1 1.4
2018-Jun-12 17:00N 54°43' E 019°02'2 4.6
2018-Jun-12 16:30N 54°43' E 018°58'5 9.5
2018-Jun-12 16:00N 54°48' E 018°56'610.9
2018-Jun-12 15:30N 54°52' E 018°51'510.9
2018-Jun-12 15:00N 54°57' E 018°46'5 9.8
2018-Jun-12 14:30N 54°60' E 018°40'510.8
2018-Jun-12 14:00N 54°60' E 018°30'610.8
2018-Jun-12 13:30N 54°60' E 018°21'510.8
2018-Jun-12 13:00N 54°59' E 018°12'510.8
2018-Jun-12 12:30N 54°58' E 018°02'611.2
2018-Jun-12 12:00N 54°57' E 017°53'611.0
2018-Jun-12 11:29N 54°56' E 017°43'2 4.6
2018-Jun-12 11:00N 54°53' E 017°42'0 1.0
2018-Jun-12 10:29N 54°54' E 017°41'1 1.0
2018-Jun-12 10:00N 54°54' E 017°40'4 1.1
2018-Jun-12 06:28N 54°55' E 017°33'4810.5
2018-Jun-12 01:55N 54°45' E 016°12'510.9
2018-Jun-12 01:26N 54°45' E 016°03'1310.9
2018-Jun-12 00:14N 54°43' E 015°41'1310.8
2018-Jun-11 23:00N 54°41' E 015°18'710.4
2018-Jun-11 22:21N 54°40' E 015°06'410.3
2018-Jun-11 22:00N 54°39' E 015°00'610.6
2018-Jun-11 21:26N 54°38' E 014°50'510.9
2018-Jun-11 21:00N 54°38' E 014°42'1010.8
2018-Jun-11 20:06N 54°36' E 014°25'810.9
2018-Jun-11 19:20N 54°38' E 014°12'411.1
2018-Jun-11 18:56N 54°40' E 014°05'3410.9
2018-Jun-11 15:51N 54°49' E 013°08'1911.4
2018-Jun-11 14:09N 54°43' E 012°37'211.2
2018-Jun-11 13:56N 54°42' E 012°33'1011.6
2018-Jun-11 13:06N 54°37' E 012°18'111.5
2018-Jun-11 13:00N 54°36' E 012°17'511.0
2018-Jun-11 12:30N 54°31' E 012°14'  

Dump ship's entire track history